createdAt,value
2019-05-07T00:01:43.045Z,101579.05
2019-05-07T00:04:12.928Z,101581.79
2019-05-07T00:06:43.313Z,101579.05
2019-05-07T00:09:12.730Z,101582.21
2019-05-07T00:11:42.620Z,101578.22
2019-05-07T00:14:12.580Z,101584.75
2019-05-07T00:16:42.199Z,101582.23
2019-05-07T00:19:12.712Z,101585.70
2019-05-07T00:21:42.316Z,101578.77
2019-05-07T00:24:12.958Z,101585.50
2019-05-07T00:26:42.797Z,101584.23
2019-05-07T00:29:12.796Z,101586.73
2019-05-07T00:31:42.005Z,101579.89
2019-05-07T00:34:12.545Z,101582.73
2019-05-07T00:36:44.401Z,101581.67
2019-05-07T00:39:27.146Z,101579.77
2019-05-07T00:41:57.033Z,101577.86
2019-05-07T00:44:25.633Z,101585.20
2019-05-07T00:46:53.847Z,101577.81
2019-05-07T00:49:24.171Z,101582.14
2019-05-07T00:51:52.387Z,101583.05
2019-05-07T00:54:22.874Z,101582.41
2019-05-07T00:56:52.148Z,101579.89
2019-05-07T00:59:22.408Z,101588.53
2019-05-07T01:01:52.799Z,101585.34
2019-05-07T01:04:22.915Z,101581.23
2019-05-07T01:06:53.225Z,101583.97
2019-05-07T01:09:22.878Z,101589.78
2019-05-07T01:11:52.400Z,101591.91
2019-05-07T01:14:22.659Z,101582.87
2019-05-07T01:16:52.707Z,101579.61
2019-05-07T01:19:21.924Z,101580.24
2019-05-07T01:21:52.351Z,101580.34
2019-05-07T01:24:23.331Z,101579.58
2019-05-07T01:26:52.946Z,101576.94
2019-05-07T01:29:22.564Z,101577.67
2019-05-07T01:31:55.339Z,101578.09
2019-05-07T01:34:25.215Z,101581.66
2019-05-07T01:36:53.552Z,101576.58
2019-05-07T01:39:23.149Z,101578.38
2019-05-07T01:41:52.478Z,101585.61
2019-05-07T01:44:22.158Z,101586.67
2019-05-07T01:46:52.749Z,101583.94
2019-05-07T01:49:20.448Z,101583.82
2019-05-07T01:51:48.947Z,101583.82
2019-05-07T01:54:17.210Z,101579.59
2019-05-07T01:56:45.428Z,101589.30
2019-05-07T01:59:13.661Z,101590.57
2019-05-07T02:01:42.884Z,101580.38
2019-05-07T02:04:13.000Z,101588.29
2019-05-07T02:06:58.835Z,101590.42
2019-05-07T02:09:28.725Z,101587.68
2019-05-07T02:12:02.462Z,101590.81
2019-05-07T02:14:30.187Z,101595.53
2019-05-07T02:16:58.391Z,101595.62
2019-05-07T02:19:26.933Z,101592.33
2019-05-07T02:21:55.141Z,101591.48
2019-05-07T02:24:23.399Z,101594.09
2019-05-07T02:26:52.130Z,101588.62
2019-05-07T02:29:20.347Z,101589.47
2019-05-07T02:31:48.569Z,101590.84
2019-05-07T02:34:16.802Z,101590.20
2019-05-07T02:36:45.368Z,101596.70
2019-05-07T02:39:17.614Z,101593.02
2019-05-07T02:41:45.844Z,101603.97
2019-05-07T02:44:14.434Z,101597.13
2019-05-07T02:46:47.199Z,101595.85
2019-05-07T02:49:23.453Z,101597.13
2019-05-07T02:52:04.152Z,101594.30
2019-05-07T02:54:53.160Z,101595.67
2019-05-07T02:57:20.039Z,101607.02
2019-05-07T02:59:48.250Z,101611.45
2019-05-07T03:02:16.882Z,101609.58
2019-05-07T03:04:45.103Z,101614.05
2019-05-07T03:07:13.445Z,101612.69
2019-05-07T03:09:43.189Z,101613.78
2019-05-07T03:12:13.181Z,101601.98
2019-05-07T03:14:43.863Z,101604.30
2019-05-07T03:17:13.392Z,101607.20
2019-05-07T03:19:43.269Z,101608.75
2019-05-07T03:22:13.996Z,101607.66
2019-05-07T03:24:43.705Z,101608.16
2019-05-07T03:27:14.176Z,101606.87
2019-05-07T03:29:44.494Z,101605.09
2019-05-07T03:32:36.651Z,101607.02
2019-05-07T03:35:16.433Z,101616.87
2019-05-07T03:37:45.238Z,101423.09
2019-05-07T03:40:14.286Z,101610.02
2019-05-07T03:42:43.964Z,101606.45
2019-05-07T03:45:17.533Z,101602.47
2019-05-07T03:47:47.451Z,101601.42
2019-05-07T03:50:16.569Z,101603.22
2019-05-07T03:52:44.795Z,101576.84
2019-05-07T03:55:14.522Z,101596.61
2019-05-07T03:57:43.942Z,101607.80
2019-05-07T04:00:13.232Z,101596.96
2019-05-07T04:02:43.716Z,101596.23
2019-05-07T04:05:14.097Z,101611.08
2019-05-07T04:07:42.985Z,101602.42
2019-05-07T04:10:14.658Z,101600.27
2019-05-07T04:12:44.181Z,101606.68
2019-05-07T04:15:14.648Z,101604.69
2019-05-07T04:17:43.348Z,101602.28
2019-05-07T04:20:13.416Z,101608.42
2019-05-07T04:22:43.058Z,101606.09
2019-05-07T04:25:28.520Z,101600.81
2019-05-07T04:28:10.702Z,101604.27
2019-05-07T04:30:39.285Z,101593.80
2019-05-07T04:33:09.164Z,101602.70
2019-05-07T04:35:43.483Z,101600.59
2019-05-07T04:38:13.737Z,101600.62
2019-05-07T04:40:43.445Z,101599.06
2019-05-07T04:43:13.668Z,101603.65
2019-05-07T04:45:43.267Z,101547.56
2019-05-07T04:48:14.194Z,101606.31
2019-05-07T04:50:47.534Z,101609.25
2019-05-07T04:53:13.968Z,101610.26
2019-05-07T04:55:43.049Z,101605.45
2019-05-07T04:58:13.993Z,101611.52
2019-05-07T05:00:43.151Z,101607.97
2019-05-07T05:03:19.532Z,101599.98
2019-05-07T05:05:47.752Z,101601.17
2019-05-07T05:08:16.927Z,101611.82
2019-05-07T05:10:45.167Z,101608.66
2019-05-07T05:13:13.374Z,101617.95
2019-05-07T05:15:43.107Z,101617.33
2019-05-07T05:18:12.747Z,101615.94
2019-05-07T05:20:46.046Z,101613.55
2019-05-07T05:23:16.213Z,101612.16
2019-05-07T05:25:45.061Z,101622.77
2019-05-07T05:28:13.857Z,101623.94
2019-05-07T05:30:53.969Z,101622.60
2019-05-07T05:33:23.485Z,101615.64
2019-05-07T05:35:52.563Z,101621.54
2019-05-07T05:38:22.166Z,101627.91
2019-05-07T05:40:52.079Z,101631.24
2019-05-07T05:43:22.863Z,101630.59
2019-05-07T05:45:53.080Z,101634.50
2019-05-07T05:48:22.416Z,101633.97
2019-05-07T05:51:02.683Z,101635.70
2019-05-07T05:53:32.857Z,101634.29
2019-05-07T05:56:02.773Z,101632.32
2019-05-07T05:58:32.951Z,101629.19
2019-05-07T06:01:08.664Z,101636.86
2019-05-07T06:03:43.021Z,101640.19
2019-05-07T06:06:12.999Z,101641.92
2019-05-07T06:08:43.498Z,101634.22
2019-05-07T06:11:13.382Z,101636.66
2019-05-07T06:13:45.965Z,101645.58
2019-05-07T06:16:18.579Z,101644.38
2019-05-07T06:18:57.251Z,101642.33
2019-05-07T06:21:27.122Z,101639.33
2019-05-07T06:24:02.806Z,101642.84
2019-05-07T06:26:31.904Z,101636.45
2019-05-07T06:29:02.310Z,101642.36
2019-05-07T06:31:32.534Z,101639.43
2019-05-07T06:34:01.834Z,101640.17
2019-05-07T06:36:32.835Z,101639.87
2019-05-07T06:39:19.013Z,101643.81
2019-05-07T06:42:05.104Z,101646.69
2019-05-07T06:44:33.595Z,101644.66
2019-05-07T06:47:02.448Z,101646.53
2019-05-07T06:49:32.424Z,101641.22
2019-05-07T06:52:02.838Z,101646.91
2019-05-07T06:54:32.127Z,101649.38
2019-05-07T06:57:01.970Z,101653.31
2019-05-07T06:59:34.972Z,101650.73
2019-05-07T07:02:22.535Z,101654.02
2019-05-07T07:04:58.249Z,101653.22
2019-05-07T07:07:37.308Z,101646.28
2019-05-07T07:10:11.985Z,101620.43
2019-05-07T07:12:44.626Z,101649.53
2019-05-07T07:15:12.858Z,101643.17
2019-05-07T07:17:41.878Z,101644.94
2019-05-07T07:20:12.542Z,101652.12
2019-05-07T07:22:42.450Z,101644.98
2019-05-07T07:25:11.881Z,101645.55
2019-05-07T07:27:42.820Z,101647.41
2019-05-07T07:30:21.830Z,101648.62
2019-05-07T07:32:52.001Z,101647.59
2019-05-07T07:35:22.443Z,101639.39
2019-05-07T07:37:50.445Z,101644.83
2019-05-07T07:40:22.429Z,101642.94
2019-05-07T07:42:52.025Z,101643.32
2019-05-07T07:45:22.815Z,101645.19
2019-05-07T07:47:53.008Z,101642.58
2019-05-07T07:50:22.426Z,101638.77
2019-05-07T07:52:52.984Z,101638.34
2019-05-07T07:55:22.896Z,101640.75
2019-05-07T07:57:56.512Z,101640.75
2019-05-07T08:00:35.828Z,101631.02
2019-05-07T08:03:05.709Z,101637.91
2019-05-07T08:05:33.921Z,101638.16
2019-05-07T08:08:02.398Z,101637.58
2019-05-07T08:10:32.576Z,101642.70
2019-05-07T08:13:01.921Z,101638.79
2019-05-07T08:15:33.085Z,101641.77
2019-05-07T08:18:02.812Z,101631.69
2019-05-07T08:20:32.626Z,101634.19
2019-05-07T08:23:02.952Z,101628.97
2019-05-07T08:25:52.287Z,101627.91
2019-05-07T08:28:22.852Z,101624.80
2019-05-07T08:30:52.713Z,101632.59
2019-05-07T08:33:22.572Z,101628.72
2019-05-07T08:35:58.366Z,101633.23
2019-05-07T08:38:29.846Z,101626.96
2019-05-07T08:40:56.538Z,101629.84
2019-05-07T08:43:24.747Z,101629.81
2019-05-07T08:46:12.091Z,101631.28
2019-05-07T08:48:42.452Z,101625.88
2019-05-07T08:51:11.932Z,101627.35
2019-05-07T08:53:42.202Z,101628.55
2019-05-07T08:56:12.314Z,101634.44
2019-05-07T08:58:42.022Z,101625.61
2019-05-07T09:01:11.883Z,101625.09
2019-05-07T09:03:43.040Z,101625.09
2019-05-07T09:06:12.955Z,101628.27
2019-05-07T09:08:43.502Z,101627.42
2019-05-07T09:11:13.303Z,101622.53
2019-05-07T09:13:42.087Z,101617.03
2019-05-07T09:16:12.805Z,101613.91
2019-05-07T09:18:42.200Z,101614.27
2019-05-07T09:21:12.325Z,101614.41
2019-05-07T09:23:42.215Z,101609.19
2019-05-07T09:26:13.054Z,101609.84
2019-05-07T09:28:52.411Z,101612.17
2019-05-07T09:31:28.013Z,101608.83
2019-05-07T09:33:57.884Z,101614.36
2019-05-07T09:36:27.758Z,101607.05
2019-05-07T09:38:58.989Z,101607.08
2019-05-07T09:41:28.337Z,101614.62
2019-05-07T09:43:57.305Z,101602.97
2019-05-07T09:46:25.682Z,101600.27
2019-05-07T09:48:53.957Z,101602.84
2019-05-07T09:51:22.687Z,101602.09
2019-05-07T09:53:51.966Z,101586.55
2019-05-07T09:56:22.469Z,101595.19
2019-05-07T09:58:52.926Z,101596.31
2019-05-07T10:01:23.572Z,101589.09
2019-05-07T10:03:51.906Z,101587.73
2019-05-07T10:06:20.411Z,101586.39
2019-05-07T10:08:48.625Z,101586.37
2019-05-07T10:11:18.499Z,101582.73
2019-05-07T10:14:06.756Z,101581.78
2019-05-07T10:16:42.379Z,101586.78
2019-05-07T10:19:10.614Z,101585.14
2019-05-07T10:21:38.962Z,101575.95
2019-05-07T10:24:07.159Z,101576.61
2019-05-07T10:26:35.382Z,101574.97
2019-05-07T10:29:03.602Z,101580.20
2019-05-07T10:31:32.105Z,101580.09
2019-05-07T10:34:00.355Z,101577.92
2019-05-07T10:36:28.567Z,101574.34
2019-05-07T10:38:56.833Z,101567.47
2019-05-07T10:41:25.189Z,101572.48
2019-05-07T10:43:53.444Z,101570.00
2019-05-07T10:46:42.317Z,101564.09
2019-05-07T10:49:12.407Z,101571.56
2019-05-07T10:51:42.559Z,101573.11
2019-05-07T10:54:12.588Z,101562.74
2019-05-07T10:56:41.883Z,101562.70
2019-05-07T10:59:12.175Z,101564.15
2019-05-07T11:01:45.421Z,101562.05
2019-05-07T11:04:13.640Z,101565.81
2019-05-07T11:06:41.924Z,101567.48
2019-05-07T11:09:10.181Z,101557.95
2019-05-07T11:11:38.366Z,101557.56
2019-05-07T11:14:06.694Z,101558.20
2019-05-07T11:16:36.843Z,101549.63
2019-05-07T11:19:05.443Z,101547.16
2019-05-07T11:21:33.746Z,101543.48
2019-05-07T11:24:03.291Z,101541.57
2019-05-07T11:26:35.080Z,101540.88
2019-05-07T11:29:03.489Z,101545.42
2019-05-07T11:31:33.102Z,101539.30
2019-05-07T11:34:02.761Z,101541.54
2019-05-07T11:36:32.077Z,101539.04
2019-05-07T11:39:01.991Z,101536.52
2019-05-07T11:41:32.123Z,101534.27
2019-05-07T11:44:02.057Z,101542.81
2019-05-07T11:46:32.810Z,101548.20
2019-05-07T11:49:05.770Z,101539.72
2019-05-07T11:51:38.350Z,101532.95
2019-05-07T11:54:13.573Z,101536.39
2019-05-07T11:56:42.397Z,101540.16
2019-05-07T11:59:13.106Z,101535.50
2019-05-07T12:01:47.223Z,101528.40
2019-05-07T12:04:12.871Z,101530.65
2019-05-07T12:06:41.380Z,101526.16
2019-05-07T12:09:09.591Z,101525.84
2019-05-07T12:11:38.385Z,101521.26
2019-05-07T12:14:06.941Z,101523.34
2019-05-07T12:16:35.552Z,101517.27
2019-05-07T12:19:03.765Z,101520.39
2019-05-07T12:21:32.353Z,101531.81
2019-05-07T12:24:02.171Z,101529.59
2019-05-07T12:26:31.951Z,101530.39
2019-05-07T12:29:00.477Z,101530.20
2019-05-07T12:31:46.624Z,101523.91
2019-05-07T12:34:16.485Z,101514.20
2019-05-07T12:36:44.706Z,101508.64
2019-05-07T12:39:13.371Z,101512.47
2019-05-07T12:41:43.076Z,101504.24
2019-05-07T12:44:12.964Z,101506.59
2019-05-07T12:46:42.294Z,101504.57
2019-05-07T12:49:12.025Z,101493.02
2019-05-07T12:51:42.686Z,101496.45
2019-05-07T12:54:25.333Z,101492.91
2019-05-07T12:56:53.542Z,101494.89
2019-05-07T12:59:22.014Z,101495.49
2019-05-07T13:01:52.237Z,101494.41
2019-05-07T13:04:32.486Z,101484.97
2019-05-07T13:07:02.621Z,101493.05
2019-05-07T13:09:32.489Z,101479.41
2019-05-07T13:12:03.014Z,101476.34
2019-05-07T13:14:31.465Z,101474.41
2019-05-07T13:17:00.098Z,101468.58
2019-05-07T13:19:29.169Z,101478.02
2019-05-07T13:21:58.225Z,101475.52
2019-05-07T13:24:27.318Z,101481.37
2019-05-07T13:26:55.538Z,101473.83
2019-05-07T13:29:23.764Z,101472.99
2019-05-07T13:31:54.310Z,101467.99
2019-05-07T13:34:22.870Z,101471.07
2019-05-07T13:36:54.676Z,101469.93
2019-05-07T13:39:27.852Z,101464.66
2019-05-07T13:42:07.037Z,101462.70
2019-05-07T13:44:37.851Z,101462.12
2019-05-07T13:47:23.906Z,101460.09
2019-05-07T13:49:53.810Z,101462.88
2019-05-07T13:52:23.857Z,101458.70
2019-05-07T13:54:53.060Z,101468.13
2019-05-07T13:57:22.660Z,101463.66
2019-05-07T13:59:53.067Z,101467.55
2019-05-07T14:02:23.725Z,101462.86
2019-05-07T14:04:52.651Z,101463.72
2019-05-07T14:07:21.784Z,101458.70
2019-05-07T14:09:50.124Z,101449.81
2019-05-07T14:12:18.702Z,101454.25
2019-05-07T14:14:46.917Z,101453.97
2019-05-07T14:17:15.272Z,101447.28
2019-05-07T14:19:43.479Z,101453.75
2019-05-07T14:22:16.280Z,101455.45
2019-05-07T14:24:42.224Z,101452.64
2019-05-07T14:27:10.560Z,101446.19
2019-05-07T14:29:38.763Z,101453.92
2019-05-07T14:32:08.608Z,101451.39
2019-05-07T14:34:38.503Z,101449.70
2019-05-07T14:37:23.303Z,101450.22
2019-05-07T14:39:51.921Z,101448.81
2019-05-07T14:42:22.136Z,101448.19
2019-05-07T14:44:52.633Z,101450.40
2019-05-07T14:47:22.337Z,101441.50
2019-05-07T14:49:52.964Z,101440.23
2019-05-07T14:52:30.119Z,101430.02
2019-05-07T14:54:51.044Z,101427.53
2019-05-07T14:57:19.253Z,101430.33
2019-05-07T14:59:47.799Z,101425.03
2019-05-07T15:02:17.011Z,101428.38
2019-05-07T15:04:45.226Z,101413.06
2019-05-07T15:07:13.460Z,101416.09
2019-05-07T15:09:42.625Z,101411.28
2019-05-07T15:12:12.445Z,101422.39
2019-05-07T15:14:42.130Z,101427.67
2019-05-07T15:17:12.900Z,101416.50
2019-05-07T15:19:42.753Z,101413.17
2019-05-07T15:22:13.026Z,101412.05
2019-05-07T15:24:41.781Z,101409.53
2019-05-07T15:27:12.184Z,101401.45
2019-05-07T15:29:42.100Z,101400.08
2019-05-07T15:32:12.602Z,101397.80
2019-05-07T15:34:42.111Z,101401.87
2019-05-07T15:37:12.300Z,101397.55
2019-05-07T15:39:42.153Z,101395.53
2019-05-07T15:42:10.515Z,101393.19
2019-05-07T15:44:38.721Z,101395.94
2019-05-07T15:47:08.563Z,101388.11
2019-05-07T15:49:36.803Z,101387.52
2019-05-07T15:52:06.649Z,101393.06
2019-05-07T15:54:34.859Z,101389.83
2019-05-07T15:57:04.728Z,101396.03
2019-05-07T15:59:32.928Z,101397.03
2019-05-07T16:02:06.031Z,101387.99
2019-05-07T16:04:35.003Z,101384.43
2019-05-07T16:07:05.228Z,101385.26
2019-05-07T16:09:45.439Z,101384.10
2019-05-07T16:12:15.303Z,101381.88
2019-05-07T16:14:43.514Z,101375.45
2019-05-07T16:17:13.387Z,101368.55
2019-05-07T16:19:42.561Z,101368.05
2019-05-07T16:22:12.804Z,101363.89
2019-05-07T16:24:41.164Z,101375.33
2019-05-07T16:27:09.400Z,101365.00
2019-05-07T16:29:37.723Z,101361.08
2019-05-07T16:32:06.051Z,101369.13
2019-05-07T16:34:34.310Z,101361.60
2019-05-07T16:37:06.803Z,101356.58
2019-05-07T16:39:32.804Z,101357.09
2019-05-07T16:42:01.866Z,101351.80
2019-05-07T16:44:30.204Z,101350.05
2019-05-07T16:46:58.406Z,101351.39
2019-05-07T16:49:26.647Z,101351.09
2019-05-07T16:51:54.859Z,101344.66
2019-05-07T16:54:23.404Z,101341.59
2019-05-07T16:57:03.122Z,101345.99
2019-05-07T16:59:32.330Z,101341.52
2019-05-07T17:02:02.745Z,101344.25
2019-05-07T17:04:31.954Z,101337.84
2019-05-07T17:07:02.547Z,101343.30
2019-05-07T17:09:32.267Z,101339.37
2019-05-07T17:12:03.050Z,101342.66
2019-05-07T17:14:31.254Z,101338.75
2019-05-07T17:16:59.791Z,101333.72
2019-05-07T17:19:28.013Z,101332.57
2019-05-07T17:21:56.595Z,101336.98
2019-05-07T17:24:24.805Z,101329.69
2019-05-07T17:26:53.046Z,101327.97
2019-05-07T17:29:22.698Z,101327.41
2019-05-07T17:31:52.720Z,101325.65
2019-05-07T17:34:22.161Z,101330.05
2019-05-07T17:36:52.441Z,101331.98
2019-05-07T17:39:22.670Z,101324.47
2019-05-07T17:41:51.846Z,101323.90
2019-05-07T17:44:21.010Z,101323.30
2019-05-07T17:46:51.841Z,101324.61
2019-05-07T17:49:21.895Z,101314.87
2019-05-07T17:51:52.457Z,101315.35
2019-05-07T17:54:22.330Z,101314.47
2019-05-07T17:56:52.560Z,101311.36
2019-05-07T17:59:20.573Z,101311.06
2019-05-07T18:02:01.788Z,101310.45
2019-05-07T18:04:32.453Z,101306.48
2019-05-07T18:07:01.125Z,101300.30
2019-05-07T18:09:31.882Z,101303.03
2019-05-07T18:12:00.260Z,101296.80
2019-05-07T18:14:28.564Z,101295.88
2019-05-07T18:16:58.786Z,101292.22
2019-05-07T18:19:28.653Z,101292.13
2019-05-07T18:21:56.896Z,101290.93
2019-05-07T18:24:25.658Z,101289.16
2019-05-07T18:26:54.006Z,101293.48
2019-05-07T18:29:22.607Z,101289.23
2019-05-07T18:31:55.318Z,101292.98
2019-05-07T18:34:23.540Z,101290.94
2019-05-07T18:36:53.045Z,101294.13
2019-05-07T18:39:21.346Z,101304.56
2019-05-07T18:41:52.135Z,101175.29
2019-05-07T18:44:22.145Z,101298.61
2019-05-07T18:46:52.695Z,101300.48
2019-05-07T18:49:20.846Z,101299.84
2019-05-07T18:51:49.122Z,101291.94
2019-05-07T18:54:27.950Z,101297.63
2019-05-07T18:56:47.301Z,101300.28
2019-05-07T18:59:16.663Z,101301.29
2019-05-07T19:01:45.152Z,101297.94
2019-05-07T19:04:13.356Z,101304.54
2019-05-07T19:06:42.421Z,101301.39
2019-05-07T19:09:11.306Z,101299.95
2019-05-07T19:11:39.895Z,101296.28
2019-05-07T19:14:08.121Z,101296.80
2019-05-07T19:16:36.658Z,101303.32
2019-05-07T19:19:05.837Z,101300.39
2019-05-07T19:21:34.545Z,101300.55
2019-05-07T19:24:03.024Z,101303.48
2019-05-07T19:26:32.091Z,101301.45
2019-05-07T19:29:02.571Z,101306.33
2019-05-07T19:31:32.516Z,101304.30
2019-05-07T19:34:02.932Z,101307.58
2019-05-07T19:36:32.178Z,101309.16
2019-05-07T19:39:01.958Z,101307.41
2019-05-07T19:41:32.126Z,101304.42
2019-05-07T19:44:02.039Z,101308.84
2019-05-07T19:46:30.712Z,101311.32
2019-05-07T19:48:59.184Z,101302.61
2019-05-07T19:51:27.472Z,101300.89
2019-05-07T19:53:56.293Z,101299.45
2019-05-07T19:56:25.562Z,101296.50
2019-05-07T19:58:53.777Z,101293.00
2019-05-07T20:01:23.709Z,101300.81
2019-05-07T20:03:52.870Z,101299.43
2019-05-07T20:06:23.377Z,101294.56
2019-05-07T20:08:52.907Z,101294.05
2019-05-07T20:11:32.464Z,101286.95
2019-05-07T20:14:02.018Z,101286.16
2019-05-07T20:16:32.403Z,101286.47
2019-05-07T20:19:00.397Z,101280.64
2019-05-07T20:21:28.900Z,101281.42
2019-05-07T20:23:57.110Z,101274.72
2019-05-07T20:26:25.339Z,101273.55
2019-05-07T20:28:53.548Z,101279.27
2019-05-07T20:31:22.561Z,101267.57
2019-05-07T20:33:53.166Z,101271.66
2019-05-07T20:36:21.099Z,101263.69
2019-05-07T20:38:51.912Z,101262.90
2019-05-07T20:41:19.915Z,101264.81
2019-05-07T20:43:48.294Z,101264.28
2019-05-07T20:46:16.607Z,101265.97
2019-05-07T20:48:44.884Z,101262.95
2019-05-07T20:51:13.100Z,101259.88
2019-05-07T20:54:00.273Z,101263.16
2019-05-07T20:56:38.990Z,101259.02
2019-05-07T20:59:07.203Z,101263.94
2019-05-07T21:01:35.739Z,101253.18
2019-05-07T21:04:03.968Z,101253.97
2019-05-07T21:06:32.545Z,101254.22
2019-05-07T21:09:00.764Z,101248.70
2019-05-07T21:11:29.098Z,101251.74
2019-05-07T21:13:57.645Z,101251.74
2019-05-07T21:16:25.854Z,101247.61
2019-05-07T21:18:54.072Z,101251.20
2019-05-07T21:21:22.544Z,101075.27
2019-05-07T21:23:52.693Z,101244.36
2019-05-07T21:26:22.543Z,101244.95
2019-05-07T21:28:52.739Z,101243.04
2019-05-07T21:31:22.682Z,101247.18
2019-05-07T21:33:52.379Z,101240.50
2019-05-07T21:36:22.791Z,101234.76
2019-05-07T21:38:51.981Z,101235.83
2019-05-07T21:41:22.518Z,101233.60
2019-05-07T21:43:50.178Z,101232.22
2019-05-07T21:46:18.388Z,101231.41
2019-05-07T21:48:46.605Z,101225.32
2019-05-07T21:51:14.831Z,101225.30
2019-05-07T21:53:47.123Z,101217.50
2019-05-07T21:56:22.944Z,101219.13
2019-05-07T21:58:54.135Z,101211.05
2019-05-07T22:01:24.039Z,101209.34
2019-05-07T22:03:53.912Z,101208.44
2019-05-07T22:06:22.654Z,101209.48
2019-05-07T22:08:52.534Z,101197.55
2019-05-07T22:11:22.950Z,101198.58
2019-05-07T22:13:52.781Z,101196.81
2019-05-07T22:16:22.147Z,101198.92
2019-05-07T22:18:52.213Z,101196.61
2019-05-07T22:21:20.503Z,101198.97
2019-05-07T22:23:48.728Z,101194.13
2019-05-07T22:26:22.885Z,101189.27
2019-05-07T22:28:46.865Z,101188.05
2019-05-07T22:31:25.403Z,101176.31
2019-05-07T22:34:12.813Z,101180.58
2019-05-07T22:36:43.149Z,101181.55
2019-05-07T22:39:12.607Z,101176.91
2019-05-07T22:41:42.460Z,101177.00
2019-05-07T22:44:12.003Z,101173.27
2019-05-07T22:46:42.144Z,101174.55
2019-05-07T22:49:12.265Z,101172.80
2019-05-07T22:51:40.470Z,101160.89
2019-05-07T22:54:08.695Z,101160.77
2019-05-07T22:56:54.623Z,101155.75
2019-05-07T22:59:23.227Z,101153.71
2019-05-07T23:01:55.079Z,101146.95
2019-05-07T23:04:22.938Z,101145.67
2019-05-07T23:06:52.846Z,101134.31
2019-05-07T23:09:22.363Z,101141.13
2019-05-07T23:11:52.550Z,101133.30
2019-05-07T23:14:22.631Z,101125.04
2019-05-07T23:16:52.559Z,101118.69
2019-05-07T23:19:22.082Z,101120.00
2019-05-07T23:21:52.207Z,101121.55
2019-05-07T23:24:24.488Z,101121.48
2019-05-07T23:26:53.361Z,101120.07
2019-05-07T23:29:22.449Z,101118.09
2019-05-07T23:31:52.849Z,101112.98
2019-05-07T23:34:21.967Z,101112.56
2019-05-07T23:36:53.075Z,101108.01
2019-05-07T23:39:22.207Z,101110.69
2019-05-07T23:42:02.299Z,101108.78
2019-05-07T23:44:30.667Z,101103.77
2019-05-07T23:46:58.864Z,101098.13
2019-05-07T23:49:27.375Z,101098.06
2019-05-07T23:51:55.954Z,101099.33
2019-05-07T23:54:24.154Z,101101.41
2019-05-07T23:57:04.986Z,101103.80
2019-05-07T23:59:22.468Z,101101.19
